createdAt,value
2019-03-29T00:00:10.641Z,9.43
2019-03-29T00:02:39.122Z,9.43
2019-03-29T00:05:07.800Z,9.42
2019-03-29T00:07:39.992Z,9.40
2019-03-29T00:10:07.852Z,9.40
2019-03-29T00:12:36.406Z,9.41
2019-03-29T00:15:07.931Z,9.40
2019-03-29T00:17:36.538Z,9.39
2019-03-29T00:20:08.284Z,9.39
2019-03-29T00:22:36.827Z,9.37
2019-03-29T00:25:06.423Z,9.36
2019-03-29T00:27:37.184Z,9.37
2019-03-29T00:30:06.560Z,9.38
2019-03-29T00:32:35.030Z,9.34
2019-03-29T00:35:03.817Z,9.35
2019-03-29T00:37:32.287Z,9.33
2019-03-29T00:40:09.518Z,9.32
2019-03-29T00:42:38.077Z,9.32
2019-03-29T00:45:07.834Z,9.32
2019-03-29T00:47:36.401Z,9.31
2019-03-29T00:50:07.072Z,9.31
2019-03-29T00:52:37.599Z,9.30
2019-03-29T00:55:07.162Z,9.29
2019-03-29T00:57:35.714Z,9.30
2019-03-29T01:00:08.437Z,9.30
2019-03-29T01:02:40.898Z,9.28
2019-03-29T01:05:09.622Z,9.27
2019-03-29T01:07:38.234Z,9.27
2019-03-29T01:10:07.511Z,9.26
2019-03-29T01:12:35.968Z,9.25
2019-03-29T01:15:09.956Z,9.26
2019-03-29T01:17:38.496Z,9.26
2019-03-29T01:20:07.984Z,9.24
2019-03-29T01:22:36.544Z,9.23
2019-03-29T01:25:08.088Z,9.23
2019-03-29T01:27:38.541Z,9.23
2019-03-29T01:30:07.934Z,9.22
2019-03-29T01:32:36.394Z,9.22
2019-03-29T01:35:06.780Z,9.21
2019-03-29T01:37:35.324Z,9.18
2019-03-29T01:40:05.108Z,9.18
2019-03-29T01:42:33.584Z,9.20
2019-03-29T01:45:02.505Z,9.20
2019-03-29T01:47:32.722Z,9.21
2019-03-29T01:50:01.257Z,9.20
2019-03-29T01:52:31.587Z,9.19
2019-03-29T01:55:00.160Z,9.18
2019-03-29T01:57:28.676Z,9.19
2019-03-29T01:59:57.236Z,9.20
2019-03-29T02:02:27.274Z,9.19
2019-03-29T02:04:55.822Z,9.19
2019-03-29T02:07:24.319Z,9.19
2019-03-29T02:09:52.795Z,9.21
2019-03-29T02:12:21.317Z,9.19
2019-03-29T02:14:50.166Z,9.18
2019-03-29T02:17:18.707Z,9.19
2019-03-29T02:19:48.903Z,9.18
2019-03-29T02:22:17.449Z,9.16
2019-03-29T02:24:47.555Z,9.18
2019-03-29T02:27:16.103Z,9.18
2019-03-29T02:29:44.656Z,9.19
2019-03-29T02:32:13.189Z,9.19
2019-03-29T02:34:43.609Z,9.19
2019-03-29T02:37:11.877Z,9.17
2019-03-29T02:39:40.368Z,9.19
2019-03-29T02:42:08.920Z,9.20
2019-03-29T02:44:37.409Z,9.18
2019-03-29T02:47:06.037Z,9.19
2019-03-29T02:49:34.522Z,9.20
2019-03-29T02:52:03.078Z,9.20
2019-03-29T02:54:31.580Z,9.18
2019-03-29T02:57:03.077Z,9.16
2019-03-29T02:59:31.643Z,9.18
2019-03-29T03:02:00.468Z,9.17
2019-03-29T03:04:29.019Z,9.19
2019-03-29T03:07:00.363Z,9.18
2019-03-29T03:09:28.926Z,9.19
2019-03-29T03:11:57.430Z,9.18
2019-03-29T03:14:26.060Z,9.17
2019-03-29T03:16:54.536Z,9.19
2019-03-29T03:19:23.105Z,9.16
2019-03-29T03:21:51.573Z,9.16
2019-03-29T03:24:22.700Z,9.16
2019-03-29T03:26:51.180Z,9.18
2019-03-29T03:29:19.672Z,9.18
2019-03-29T03:31:48.163Z,9.19
2019-03-29T03:34:16.705Z,9.18
2019-03-29T03:36:45.180Z,9.18
2019-03-29T03:39:30.505Z,9.16
2019-03-29T03:41:43.916Z,9.15
2019-03-29T03:44:12.414Z,9.17
2019-03-29T03:46:41.783Z,9.16
2019-03-29T03:49:11.555Z,9.14
2019-03-29T03:51:40.090Z,9.14
2019-03-29T03:54:08.747Z,9.13
2019-03-29T03:56:40.428Z,9.14
2019-03-29T03:59:09.020Z,9.14
2019-03-29T04:01:39.088Z,9.11
2019-03-29T04:04:09.074Z,9.12
2019-03-29T04:06:39.187Z,9.12
2019-03-29T04:09:07.715Z,9.13
2019-03-29T04:11:36.210Z,9.13
2019-03-29T04:14:04.766Z,9.14
2019-03-29T04:16:33.228Z,9.12
2019-03-29T04:19:02.346Z,9.11
2019-03-29T04:21:30.871Z,9.11
2019-03-29T04:23:59.546Z,9.10
2019-03-29T04:26:28.088Z,9.13
2019-03-29T04:29:04.611Z,9.11
2019-03-29T04:31:29.688Z,9.11
2019-03-29T04:33:58.157Z,9.10
2019-03-29T04:36:26.638Z,9.11
2019-03-29T04:38:55.106Z,9.10
2019-03-29T04:41:23.671Z,9.09
2019-03-29T04:43:52.140Z,9.09
2019-03-29T04:46:20.621Z,9.09
2019-03-29T04:48:49.283Z,9.11
2019-03-29T04:51:17.783Z,9.09
2019-03-29T04:53:46.398Z,9.09
2019-03-29T04:56:14.884Z,9.09
2019-03-29T04:58:43.367Z,9.07
2019-03-29T05:01:11.920Z,9.08
2019-03-29T05:03:40.756Z,9.09
2019-03-29T05:06:10.905Z,9.09
2019-03-29T05:08:40.920Z,9.06
2019-03-29T05:11:09.487Z,9.08
2019-03-29T05:13:37.959Z,9.07
2019-03-29T05:16:06.459Z,9.06
2019-03-29T05:18:34.916Z,9.08
2019-03-29T05:21:03.485Z,9.07
2019-03-29T05:23:31.971Z,9.08
2019-03-29T05:26:00.492Z,9.08
2019-03-29T05:28:28.964Z,9.09
2019-03-29T05:30:57.469Z,9.09
2019-03-29T05:33:25.957Z,9.08
2019-03-29T05:35:54.422Z,9.09
2019-03-29T05:38:22.916Z,9.07
2019-03-29T05:40:51.377Z,9.08
2019-03-29T05:43:19.869Z,9.08
2019-03-29T05:45:48.329Z,9.10
2019-03-29T05:48:16.847Z,9.11
2019-03-29T05:50:45.329Z,9.12
2019-03-29T05:53:13.808Z,9.10
2019-03-29T05:55:42.283Z,9.12
2019-03-29T05:58:10.783Z,9.10
2019-03-29T06:00:39.244Z,9.13
2019-03-29T06:03:10.169Z,9.12
2019-03-29T06:05:38.177Z,9.14
2019-03-29T06:08:06.668Z,9.13
2019-03-29T06:10:48.241Z,9.14
2019-03-29T06:13:08.162Z,9.15
2019-03-29T06:15:36.714Z,9.13
2019-03-29T06:18:05.269Z,9.13
2019-03-29T06:20:33.758Z,9.12
2019-03-29T06:23:02.240Z,9.18
2019-03-29T06:25:30.723Z,9.19
2019-03-29T06:28:00.639Z,9.15
2019-03-29T06:30:30.393Z,9.17
2019-03-29T06:33:02.454Z,9.20
2019-03-29T06:35:33.549Z,9.20
2019-03-29T06:38:03.552Z,9.23
2019-03-29T06:40:32.021Z,9.26
2019-03-29T06:43:00.522Z,9.22
2019-03-29T06:45:46.816Z,9.28
2019-03-29T06:48:04.029Z,9.30
2019-03-29T06:50:34.299Z,9.31
2019-03-29T06:53:04.353Z,9.36
2019-03-29T06:55:32.816Z,9.45
2019-03-29T06:58:01.297Z,9.69
2019-03-29T07:00:29.925Z,10.06
2019-03-29T07:02:58.567Z,10.67
2019-03-29T07:05:27.045Z,11.48
2019-03-29T07:07:55.538Z,12.26
2019-03-29T07:10:39.020Z,12.75
2019-03-29T07:13:07.505Z,13.44
2019-03-29T07:15:35.987Z,13.94
2019-03-29T07:18:04.569Z,14.45
2019-03-29T07:20:33.050Z,14.75
2019-03-29T07:23:01.566Z,15.24
2019-03-29T07:25:30.194Z,15.73
2019-03-29T07:27:58.691Z,16.33
2019-03-29T07:30:27.177Z,16.95
2019-03-29T07:32:55.759Z,17.34
2019-03-29T07:35:24.303Z,17.75
2019-03-29T07:37:52.803Z,18.12
2019-03-29T07:40:21.601Z,18.59
2019-03-29T07:42:52.877Z,19.00
2019-03-29T07:45:21.530Z,19.33
2019-03-29T07:47:52.891Z,19.82
2019-03-29T07:50:21.561Z,20.24
2019-03-29T07:52:50.051Z,20.16
2019-03-29T07:55:18.567Z,20.77
2019-03-29T07:57:50.129Z,21.14
2019-03-29T08:00:20.386Z,21.24
2019-03-29T08:02:49.266Z,21.62
2019-03-29T08:05:18.784Z,22.17
2019-03-29T08:07:47.271Z,22.46
2019-03-29T08:10:25.725Z,22.23
2019-03-29T08:12:46.267Z,21.50
2019-03-29T08:15:19.329Z,21.53
2019-03-29T08:17:47.974Z,21.79
2019-03-29T08:20:38.138Z,22.04
2019-03-29T08:22:46.911Z,22.44
2019-03-29T08:25:17.231Z,22.47
2019-03-29T08:27:45.684Z,22.46
2019-03-29T08:30:15.994Z,22.47
2019-03-29T08:32:44.491Z,22.75
2019-03-29T08:35:13.191Z,23.21
2019-03-29T08:37:41.687Z,22.20
2019-03-29T08:40:10.470Z,21.33
2019-03-29T08:42:40.614Z,20.46
2019-03-29T08:45:10.168Z,19.80
2019-03-29T08:47:38.682Z,19.08
2019-03-29T08:50:07.758Z,18.54
2019-03-29T08:52:36.320Z,18.17
2019-03-29T08:55:06.494Z,18.00
2019-03-29T08:57:35.000Z,17.80
2019-03-29T09:00:07.857Z,17.58
2019-03-29T09:02:38.303Z,17.38
2019-03-29T09:05:07.030Z,17.23
2019-03-29T09:07:44.401Z,17.01
2019-03-29T09:10:08.977Z,17.20
2019-03-29T09:12:37.469Z,17.88
2019-03-29T09:15:07.377Z,18.60
2019-03-29T09:17:35.862Z,18.31
2019-03-29T09:20:05.834Z,18.97
2019-03-29T09:22:34.312Z,18.98
2019-03-29T09:25:03.065Z,18.60
2019-03-29T09:27:34.382Z,18.11
2019-03-29T09:30:05.182Z,17.55
2019-03-29T09:32:33.985Z,17.66
2019-03-29T09:35:02.632Z,17.98
2019-03-29T09:37:31.103Z,18.13
2019-03-29T09:39:59.577Z,18.60
2019-03-29T09:42:30.093Z,18.46
2019-03-29T09:44:58.437Z,18.23
2019-03-29T09:47:26.948Z,17.96
2019-03-29T09:49:58.529Z,17.96
2019-03-29T09:52:27.070Z,17.80
2019-03-29T09:54:58.560Z,17.46
2019-03-29T09:57:37.255Z,17.16
2019-03-29T09:59:58.221Z,16.91
2019-03-29T10:02:26.717Z,16.84
2019-03-29T10:04:55.237Z,16.85
2019-03-29T10:07:23.957Z,16.95
2019-03-29T10:09:52.512Z,16.89
2019-03-29T10:12:21.027Z,16.72
2019-03-29T10:14:49.507Z,16.63
2019-03-29T10:17:18.031Z,16.52
2019-03-29T10:19:49.708Z,16.64
2019-03-29T10:22:16.751Z,16.55
2019-03-29T10:24:45.269Z,16.51
2019-03-29T10:27:13.782Z,16.50
2019-03-29T10:29:42.477Z,16.50
2019-03-29T10:32:11.033Z,16.54
2019-03-29T10:34:39.530Z,16.62
2019-03-29T10:37:08.027Z,16.65
2019-03-29T10:39:36.550Z,16.69
2019-03-29T10:42:05.954Z,16.43
2019-03-29T10:44:34.455Z,16.45
2019-03-29T10:47:02.976Z,16.39
2019-03-29T10:49:33.576Z,16.45
2019-03-29T10:52:02.351Z,16.55
2019-03-29T10:54:30.912Z,16.54
2019-03-29T10:57:04.163Z,16.49
2019-03-29T10:59:33.847Z,16.55
2019-03-29T11:02:04.052Z,16.68
2019-03-29T11:04:32.606Z,16.65
2019-03-29T11:07:01.210Z,16.70
2019-03-29T11:09:29.766Z,16.50
2019-03-29T11:11:58.344Z,16.52
2019-03-29T11:14:28.356Z,16.51
2019-03-29T11:16:56.939Z,16.41
2019-03-29T11:19:25.509Z,16.42
2019-03-29T11:21:54.014Z,15.82
2019-03-29T11:24:22.558Z,16.39
2019-03-29T11:26:51.067Z,16.36
2019-03-29T11:29:21.032Z,16.39
2019-03-29T11:31:49.570Z,16.44
2019-03-29T11:34:20.845Z,16.46
2019-03-29T11:36:48.351Z,16.43
2019-03-29T11:39:16.903Z,16.35
2019-03-29T11:41:45.599Z,16.29
2019-03-29T11:44:16.383Z,16.30
2019-03-29T11:46:46.441Z,16.35
2019-03-29T11:49:16.647Z,16.43
2019-03-29T11:51:45.164Z,16.47
2019-03-29T11:54:13.791Z,16.48
2019-03-29T11:56:42.452Z,16.46
2019-03-29T11:59:10.946Z,16.57
2019-03-29T12:01:42.690Z,16.56
2019-03-29T12:04:11.334Z,16.54
2019-03-29T12:06:39.850Z,16.44
2019-03-29T12:09:08.460Z,16.49
2019-03-29T12:11:37.042Z,16.46
2019-03-29T12:14:05.663Z,16.51
2019-03-29T12:16:34.373Z,16.50
2019-03-29T12:19:02.884Z,16.46
2019-03-29T12:21:33.865Z,16.42
2019-03-29T12:24:05.382Z,16.52
2019-03-29T12:26:33.860Z,16.54
2019-03-29T12:29:02.503Z,16.65
2019-03-29T12:31:31.107Z,16.72
2019-03-29T12:33:59.611Z,16.74
2019-03-29T12:36:28.081Z,16.89
2019-03-29T12:38:56.656Z,16.96
2019-03-29T12:41:25.135Z,17.14
2019-03-29T12:43:55.679Z,17.50
2019-03-29T12:46:23.852Z,17.76
2019-03-29T12:48:55.399Z,18.27
2019-03-29T12:51:24.178Z,18.60
2019-03-29T12:53:54.986Z,18.84
2019-03-29T12:56:23.441Z,19.17
2019-03-29T12:58:52.034Z,19.43
2019-03-29T13:01:20.586Z,19.66
2019-03-29T13:03:51.608Z,19.80
2019-03-29T13:06:20.174Z,19.87
2019-03-29T13:08:48.753Z,20.14
2019-03-29T13:11:17.374Z,20.22
2019-03-29T13:13:45.885Z,20.29
2019-03-29T13:16:14.380Z,20.47
2019-03-29T13:18:42.925Z,20.47
2019-03-29T13:21:13.149Z,20.48
2019-03-29T13:23:41.621Z,20.64
2019-03-29T13:26:10.147Z,20.58
2019-03-29T13:28:38.639Z,20.49
2019-03-29T13:31:07.629Z,20.60
2019-03-29T13:33:40.505Z,20.49
2019-03-29T13:36:09.076Z,20.28
2019-03-29T13:38:37.581Z,20.06
2019-03-29T13:41:07.214Z,20.31
2019-03-29T13:43:36.431Z,20.37
2019-03-29T13:46:05.082Z,20.31
2019-03-29T13:48:33.576Z,20.17
2019-03-29T13:51:02.117Z,20.11
2019-03-29T13:53:30.596Z,20.22
2019-03-29T13:55:59.105Z,20.23
2019-03-29T13:58:27.582Z,20.09
2019-03-29T14:00:56.087Z,19.98
2019-03-29T14:03:24.639Z,19.87
2019-03-29T14:05:53.168Z,19.85
2019-03-29T14:08:21.688Z,19.79
2019-03-29T14:10:50.171Z,19.76
2019-03-29T14:13:19.799Z,19.69
2019-03-29T14:15:48.507Z,19.63
2019-03-29T14:18:17.017Z,19.47
2019-03-29T14:20:45.561Z,19.43
2019-03-29T14:23:15.675Z,19.37
2019-03-29T14:25:46.818Z,19.22
2019-03-29T14:28:15.321Z,19.23
2019-03-29T14:30:45.341Z,19.18
2019-03-29T14:33:13.917Z,18.99
2019-03-29T14:35:42.386Z,19.00
2019-03-29T14:38:10.897Z,18.94
2019-03-29T14:40:39.365Z,18.92
2019-03-29T14:43:07.867Z,18.80
2019-03-29T14:45:36.434Z,18.75
2019-03-29T14:48:04.995Z,18.70
2019-03-29T14:50:35.801Z,18.70
2019-03-29T14:53:04.353Z,18.66
2019-03-29T14:55:32.827Z,18.58
2019-03-29T14:58:01.413Z,18.56
2019-03-29T15:01:01.092Z,18.48
2019-03-29T15:03:29.582Z,18.35
2019-03-29T15:06:01.493Z,18.30
2019-03-29T15:08:28.517Z,18.16
2019-03-29T15:10:57.002Z,18.17
2019-03-29T15:13:29.708Z,18.20
2019-03-29T15:16:00.950Z,18.16
2019-03-29T15:18:29.428Z,18.13
2019-03-29T15:20:57.929Z,18.12
2019-03-29T15:23:26.411Z,18.07
2019-03-29T15:25:55.046Z,18.01
2019-03-29T15:28:24.836Z,17.96
2019-03-29T15:30:53.315Z,17.89
2019-03-29T15:33:21.786Z,17.87
2019-03-29T15:35:50.285Z,17.83
2019-03-29T15:38:21.814Z,17.78
2019-03-29T15:40:50.380Z,17.80
2019-03-29T15:43:21.295Z,17.75
2019-03-29T15:45:49.785Z,17.69
2019-03-29T15:48:18.327Z,17.64
2019-03-29T15:50:48.346Z,17.62
2019-03-29T15:53:32.907Z,17.57
2019-03-29T15:55:58.331Z,17.54
2019-03-29T15:58:26.812Z,17.47
2019-03-29T16:00:55.372Z,17.44
2019-03-29T16:03:23.851Z,17.40
2019-03-29T16:05:52.377Z,17.35
2019-03-29T16:08:20.850Z,17.28
2019-03-29T16:10:49.354Z,17.24
2019-03-29T16:13:17.915Z,17.18
2019-03-29T16:15:48.919Z,17.11
2019-03-29T16:18:17.507Z,17.01
2019-03-29T16:20:45.999Z,16.90
2019-03-29T16:23:14.494Z,16.82
2019-03-29T16:25:42.977Z,16.75
2019-03-29T16:28:11.624Z,16.68
2019-03-29T16:30:40.193Z,16.59
2019-03-29T16:33:08.821Z,16.53
2019-03-29T16:35:37.304Z,16.47
2019-03-29T16:38:05.927Z,16.41
2019-03-29T16:40:34.433Z,16.33
2019-03-29T16:43:02.935Z,16.26
2019-03-29T16:45:31.481Z,16.21
2019-03-29T16:48:00.019Z,16.16
2019-03-29T16:50:28.494Z,16.06
2019-03-29T16:52:58.007Z,16.03
2019-03-29T16:55:26.523Z,15.97
2019-03-29T16:57:55.040Z,15.90
2019-03-29T17:00:29.513Z,15.82
2019-03-29T17:02:58.032Z,15.78
2019-03-29T17:05:26.599Z,15.71
2019-03-29T17:07:55.173Z,15.65
2019-03-29T17:10:23.805Z,15.59
2019-03-29T17:12:52.489Z,15.54
2019-03-29T17:15:22.597Z,15.47
2019-03-29T17:17:54.220Z,15.40
2019-03-29T17:20:22.937Z,15.32
2019-03-29T17:22:51.490Z,15.23
2019-03-29T17:25:20.257Z,15.13
2019-03-29T17:27:52.170Z,15.10
2019-03-29T17:30:27.532Z,14.88
2019-03-29T17:32:56.022Z,14.88
2019-03-29T17:35:24.646Z,14.77
2019-03-29T17:37:53.133Z,14.77
2019-03-29T17:40:21.851Z,14.69
2019-03-29T17:42:50.938Z,14.62
2019-03-29T17:45:19.629Z,14.54
2019-03-29T17:47:48.126Z,14.45
2019-03-29T17:50:16.784Z,14.36
2019-03-29T17:52:45.340Z,14.26
2019-03-29T17:55:14.091Z,14.18
2019-03-29T17:57:48.642Z,14.14
2019-03-29T18:00:24.659Z,14.05
2019-03-29T18:02:56.357Z,13.98
2019-03-29T18:05:24.916Z,13.90
2019-03-29T18:07:53.428Z,13.83
2019-03-29T18:10:22.098Z,13.77
2019-03-29T18:12:52.306Z,13.70
2019-03-29T18:15:20.963Z,13.64
2019-03-29T18:17:52.637Z,13.57
2019-03-29T18:20:21.295Z,13.49
2019-03-29T18:22:51.325Z,13.41
2019-03-29T18:25:22.775Z,13.33
2019-03-29T18:27:51.262Z,13.27
2019-03-29T18:30:25.233Z,13.21
2019-03-29T18:32:59.706Z,13.05
2019-03-29T18:35:24.394Z,13.05
2019-03-29T18:37:53.021Z,12.95
2019-03-29T18:40:26.928Z,12.86
2019-03-29T18:42:56.248Z,12.79
2019-03-29T18:45:24.862Z,12.72
2019-03-29T18:47:53.429Z,12.66
2019-03-29T18:50:22.097Z,12.53
2019-03-29T18:52:50.613Z,12.43
2019-03-29T18:55:19.210Z,12.34
2019-03-29T18:57:47.713Z,12.27
2019-03-29T19:00:19.386Z,12.21
2019-03-29T19:02:47.970Z,12.13
2019-03-29T19:05:26.865Z,12.06
2019-03-29T19:07:55.395Z,11.99
2019-03-29T19:10:24.020Z,11.92
2019-03-29T19:12:52.667Z,11.85
2019-03-29T19:15:21.415Z,11.76
2019-03-29T19:17:49.978Z,11.72
2019-03-29T19:20:27.513Z,11.69
2019-03-29T19:22:48.858Z,11.64
2019-03-29T19:25:17.568Z,11.60
2019-03-29T19:27:46.155Z,11.53
2019-03-29T19:30:15.252Z,11.46
2019-03-29T19:32:43.906Z,11.42
2019-03-29T19:35:12.688Z,11.36
2019-03-29T19:37:41.228Z,11.29
2019-03-29T19:40:10.716Z,11.25
2019-03-29T19:42:39.282Z,11.18
2019-03-29T19:45:10.189Z,11.11
2019-03-29T19:47:38.697Z,11.06
2019-03-29T19:50:08.070Z,11.01
2019-03-29T19:52:36.569Z,10.96
2019-03-29T19:55:06.391Z,10.94
2019-03-29T19:57:34.848Z,10.90
2019-03-29T20:00:06.275Z,10.89
2019-03-29T20:02:35.190Z,10.85
2019-03-29T20:05:04.201Z,10.79
2019-03-29T20:07:32.697Z,10.72
2019-03-29T20:10:01.585Z,10.72
2019-03-29T20:12:30.144Z,10.65
2019-03-29T20:14:58.639Z,10.64
2019-03-29T20:17:27.951Z,10.58
2019-03-29T20:19:56.644Z,10.53
2019-03-29T20:22:25.143Z,10.47
2019-03-29T20:24:53.643Z,10.40
2019-03-29T20:27:22.223Z,10.36
2019-03-29T20:29:50.772Z,10.36
2019-03-29T20:32:20.000Z,10.35
2019-03-29T20:34:48.486Z,10.32
2019-03-29T20:37:17.074Z,10.28
2019-03-29T20:39:45.594Z,10.23
2019-03-29T20:42:14.125Z,10.20
2019-03-29T20:44:42.769Z,10.20
2019-03-29T20:47:11.419Z,10.11
2019-03-29T20:49:39.893Z,10.04
2019-03-29T20:52:08.503Z,10.01
2019-03-29T20:54:37.017Z,10.00
2019-03-29T20:57:05.520Z,9.93
2019-03-29T20:59:34.021Z,9.89
2019-03-29T21:02:04.115Z,9.81
2019-03-29T21:04:32.842Z,9.81
2019-03-29T21:07:01.396Z,9.76
2019-03-29T21:09:30.002Z,9.72
2019-03-29T21:11:58.545Z,9.65
2019-03-29T21:14:27.107Z,9.66
2019-03-29T21:16:58.533Z,9.61
2019-03-29T21:19:30.273Z,9.59
2019-03-29T21:21:58.874Z,9.57
2019-03-29T21:24:27.376Z,9.50
2019-03-29T21:26:55.960Z,9.50
2019-03-29T21:29:24.544Z,9.40
2019-03-29T21:31:53.051Z,9.36
2019-03-29T21:34:21.700Z,9.32
2019-03-29T21:36:52.960Z,9.25
2019-03-29T21:39:21.469Z,9.18
2019-03-29T21:41:50.022Z,9.15
2019-03-29T21:44:18.596Z,9.13
2019-03-29T21:46:47.287Z,9.07
2019-03-29T21:49:15.782Z,9.02
2019-03-29T21:51:44.249Z,9.00
2019-03-29T21:54:12.926Z,8.94
2019-03-29T21:56:41.414Z,8.94
2019-03-29T21:59:09.949Z,8.89
2019-03-29T22:01:38.466Z,8.83
2019-03-29T22:04:07.028Z,8.81
2019-03-29T22:06:35.601Z,8.79
2019-03-29T22:09:06.512Z,8.80
2019-03-29T22:11:35.092Z,8.75
2019-03-29T22:14:12.625Z,8.73
2019-03-29T22:16:41.752Z,8.67
2019-03-29T22:19:10.308Z,8.61
2019-03-29T22:21:40.621Z,8.56
2019-03-29T22:24:09.098Z,8.53
2019-03-29T22:26:37.693Z,8.50
2019-03-29T22:29:06.260Z,8.47
2019-03-29T22:31:35.118Z,8.45
2019-03-29T22:34:09.141Z,8.43
2019-03-29T22:36:37.775Z,8.37
2019-03-29T22:39:07.994Z,8.34
2019-03-29T22:41:39.584Z,8.33
2019-03-29T22:44:07.991Z,8.28
2019-03-29T22:46:36.518Z,8.23
2019-03-29T22:49:05.088Z,8.19
2019-03-29T22:51:33.683Z,8.16
2019-03-29T22:54:05.149Z,8.12
2019-03-29T22:56:35.369Z,8.06
2019-03-29T22:59:03.949Z,8.07
2019-03-29T23:01:35.476Z,8.01
2019-03-29T23:04:04.049Z,7.98
2019-03-29T23:06:32.567Z,7.95
2019-03-29T23:09:00.996Z,7.90
2019-03-29T23:11:29.502Z,7.88
2019-03-29T23:13:58.090Z,7.83
2019-03-29T23:16:26.592Z,7.80
2019-03-29T23:19:05.897Z,7.77
2019-03-29T23:21:28.022Z,7.75
2019-03-29T23:23:56.632Z,7.73
2019-03-29T23:26:25.125Z,7.68
2019-03-29T23:28:53.640Z,7.65
2019-03-29T23:31:22.099Z,7.60
2019-03-29T23:33:54.145Z,7.57
2019-03-29T23:36:22.620Z,7.49
2019-03-29T23:38:51.106Z,7.51
2019-03-29T23:41:21.101Z,7.46
2019-03-29T23:43:51.142Z,7.47
2019-03-29T23:46:19.612Z,7.44
2019-03-29T23:48:48.083Z,7.41
2019-03-29T23:51:16.662Z,7.39
2019-03-29T23:53:45.149Z,7.45
2019-03-29T23:56:13.661Z,7.44
2019-03-29T23:58:42.138Z,7.45
